Terminal Aerodrome Forecast
Issued by NWS

Home | Current Version | Previous Version | Text Only | Print | Product List | Glossary On
Versions: 1 2 3 4 5 6 7 8 9 10 11 12 13 14 15 16 17 18 19 20 21 22 23 24 25
594
FTUS41 KILN 261205 AAA
TAFLCK
TAF AMD
KLCK 261205Z 2612/2712 00000KT P6SM VCSH SCT025 BKN100
     FM261500 27015G27KT P6SM -SHRA VCTS SCT015CB OVC025
      TEMPO 2615/2618 4SM -TSRA BKN015CB OVC025
     FM261800 29012G20KT P6SM BKN025
     FM262000 28012G18KT P6SM SKC
     FM270100 24005KT P6SM SKC=

USA.gov is the U.S. government's official web portal to all federal, state and local government web resources and services.